createdAt,value
2018-11-05T00:00:05.264Z,19.8
2018-11-05T00:00:56.563Z,19.8
2018-11-05T00:01:46.612Z,19.8
2018-11-05T00:02:36.723Z,19.8
2018-11-05T00:03:27.009Z,19.8
2018-11-05T00:04:17.313Z,19.8
2018-11-05T00:05:07.757Z,19.8
2018-11-05T00:05:57.130Z,19.8
2018-11-05T00:06:47.085Z,19.8
2018-11-05T00:25:02.834Z,19.8
2018-11-05T00:25:51.865Z,19.8
2018-11-05T00:26:42.148Z,19.8
2018-11-05T00:27:31.956Z,19.8
2018-11-05T00:28:23.095Z,19.8
2018-11-05T00:29:13.266Z,19.8
2018-11-05T00:30:02.548Z,19.8
2018-11-05T00:30:53.069Z,19.8
2018-11-05T00:31:41.631Z,19.8
2018-11-05T00:32:32.696Z,19.8
2018-11-05T00:33:21.638Z,19.8
2018-11-05T00:34:12.279Z,19.8
2018-11-05T00:35:01.878Z,19.8
2018-11-05T00:35:52.346Z,19.8
2018-11-05T00:36:42.580Z,19.8
2018-11-05T00:37:32.315Z,19.8
2018-11-05T00:38:21.725Z,19.8
2018-11-05T00:39:12.703Z,19.8
2018-11-05T00:40:03.463Z,19.8
2018-11-05T00:40:53.248Z,19.8
2018-11-05T00:41:42.688Z,19.8
2018-11-05T00:42:33.349Z,19.8
2018-11-05T00:43:23.100Z,19.8
2018-11-05T00:44:11.993Z,19.8
2018-11-05T00:45:04.332Z,19.8
2018-11-05T00:45:56.081Z,19.8
2018-11-05T00:46:43.772Z,19.8
2018-11-05T00:47:34.100Z,19.8
2018-11-05T00:48:23.447Z,19.8
2018-11-05T00:49:13.511Z,19.8
2018-11-05T00:50:04.195Z,19.8
2018-11-05T00:50:53.979Z,19.8
2018-11-05T00:51:45.619Z,19.8
2018-11-05T00:52:34.884Z,19.8
2018-11-05T00:53:23.427Z,19.8
2018-11-05T00:54:14.890Z,19.8
2018-11-05T00:55:04.802Z,19.8
2018-11-05T00:55:54.017Z,19.8
2018-11-05T00:56:44.684Z,19.8
2018-11-05T00:57:35.709Z,19.8
2018-11-05T00:58:24.589Z,19.8
2018-11-05T00:59:14.071Z,19.8
2018-11-05T01:00:05.049Z,19.8
2018-11-05T01:00:55.387Z,19.8
2018-11-05T01:01:46.883Z,19.8
2018-11-05T01:02:35.670Z,19.8
2018-11-05T01:03:24.770Z,19.8
2018-11-05T01:04:15.137Z,19.8
2018-11-05T01:05:06.156Z,19.8
2018-11-05T01:05:54.648Z,19.8
2018-11-05T01:06:45.311Z,19.8
2018-11-05T01:07:35.104Z,19.8
2018-11-05T01:08:25.960Z,19.8
2018-11-05T01:09:15.625Z,19.8
2018-11-05T01:10:21.038Z,19.8
2018-11-05T01:10:56.206Z,19.8
2018-11-05T01:11:46.764Z,19.8
2018-11-05T01:12:35.631Z,19.8
2018-11-05T01:13:26.038Z,19.8
2018-11-05T01:14:15.935Z,19.8
2018-11-05T01:15:06.541Z,19.8
2018-11-05T01:15:56.253Z,19.8
2018-11-05T01:16:46.638Z,19.8
2018-11-05T01:17:35.552Z,19.8
2018-11-05T01:18:27.665Z,19.8
2018-11-05T01:19:17.660Z,19.8
2018-11-05T01:20:06.811Z,19.8
2018-11-05T01:20:56.218Z,19.8
2018-11-05T01:21:47.038Z,19.8
2018-11-05T01:22:37.688Z,19.8
2018-11-05T01:23:27.757Z,19.8
2018-11-05T01:24:16.827Z,19.8
2018-11-05T01:25:05.810Z,19.8
2018-11-05T01:25:57.225Z,19.8
2018-11-05T01:26:47.080Z,19.8
2018-11-05T01:27:36.302Z,19.8
2018-11-05T01:28:26.968Z,19.8
2018-11-05T01:29:16.812Z,19.8
2018-11-05T01:30:06.797Z,19.8
2018-11-05T01:30:58.205Z,19.8
2018-11-05T01:31:47.262Z,19.8
2018-11-05T01:32:37.198Z,19.8
2018-11-05T01:33:27.030Z,19.8
2018-11-05T01:34:17.215Z,19.8
2018-11-05T01:35:06.267Z,19.8
2018-11-05T01:35:58.762Z,19.8
2018-11-05T01:36:47.535Z,19.8
2018-11-05T01:37:37.397Z,19.8
2018-11-05T01:38:27.924Z,19.8
2018-11-05T01:39:17.352Z,19.8
2018-11-05T01:40:07.240Z,19.8
2018-11-05T01:40:57.996Z,19.8
2018-11-05T01:41:48.112Z,19.8
2018-11-05T01:42:37.154Z,19.8
2018-11-05T01:43:27.723Z,19.8
2018-11-05T01:44:18.061Z,19.8
2018-11-05T01:45:06.907Z,19.8
2018-11-05T01:45:58.957Z,19.8
2018-11-05T01:46:48.592Z,19.8
2018-11-05T01:47:38.418Z,19.8
2018-11-05T01:48:28.058Z,19.8
2018-11-05T01:49:18.688Z,19.8
2018-11-05T01:50:08.098Z,19.8
2018-11-05T01:50:58.316Z,19.8
2018-11-05T01:51:49.705Z,19.8
2018-11-05T01:52:39.385Z,19.7
2018-11-05T01:53:28.733Z,19.8
2018-11-05T01:54:18.778Z,19.8
2018-11-05T01:55:08.118Z,19.8
2018-11-05T01:55:58.860Z,19.8
2018-11-05T01:56:50.123Z,19.8
2018-11-05T01:57:38.210Z,19.8
2018-11-05T01:58:30.556Z,19.8
2018-11-05T01:59:18.735Z,19.7
2018-11-05T02:00:10.085Z,19.8
2018-11-05T02:00:59.890Z,19.7
2018-11-05T02:01:50.167Z,19.8
2018-11-05T02:02:39.527Z,19.8
2018-11-05T02:03:29.445Z,19.8
2018-11-05T02:04:20.379Z,19.8
2018-11-05T02:05:09.405Z,19.7
2018-11-05T02:06:00.688Z,19.8
2018-11-05T02:06:50.573Z,19.7
2018-11-05T02:07:40.075Z,19.7
2018-11-05T02:08:29.542Z,19.7
2018-11-05T02:09:18.941Z,19.7
2018-11-05T02:10:10.443Z,19.8
2018-11-05T02:10:59.391Z,19.7
2018-11-05T02:11:50.882Z,19.8
2018-11-05T02:12:41.747Z,19.7
2018-11-05T02:13:32.667Z,19.8
2018-11-05T02:14:20.462Z,19.7
2018-11-05T02:15:10.491Z,19.7
2018-11-05T02:16:02.079Z,19.8
2018-11-05T02:16:51.509Z,19.8
2018-11-05T02:17:40.358Z,19.7
2018-11-05T02:18:30.299Z,19.7
2018-11-05T02:19:21.283Z,19.7
2018-11-05T02:20:11.362Z,19.8
2018-11-05T02:21:00.506Z,19.7
2018-11-05T02:21:49.853Z,19.7
2018-11-05T02:22:41.691Z,19.7
2018-11-05T02:23:31.403Z,19.7
2018-11-05T02:24:21.751Z,19.7
2018-11-05T02:25:10.648Z,19.8
2018-11-05T02:26:00.059Z,19.7
2018-11-05T02:26:52.935Z,19.7
2018-11-05T02:27:38.668Z,19.7
2018-11-05T02:28:30.568Z,19.7
2018-11-05T02:29:20.799Z,19.7
2018-11-05T02:30:11.214Z,19.7
2018-11-05T02:31:02.459Z,19.8
2018-11-05T02:31:51.917Z,19.7
2018-11-05T02:32:41.899Z,19.7
2018-11-05T02:33:31.198Z,19.7
2018-11-05T02:34:22.798Z,19.7
2018-11-05T02:35:11.178Z,19.7
2018-11-05T02:36:01.271Z,19.7
2018-11-05T02:36:52.863Z,19.7
2018-11-05T02:37:42.459Z,19.7
2018-11-05T02:38:32.023Z,19.7
2018-11-05T02:39:21.968Z,19.7
2018-11-05T02:40:12.993Z,19.7
2018-11-05T02:41:03.178Z,19.7
2018-11-05T02:41:52.244Z,19.6
2018-11-05T02:42:41.826Z,19.7
2018-11-05T02:43:32.890Z,19.7
2018-11-05T02:44:22.895Z,19.7
2018-11-05T02:45:12.240Z,19.7
2018-11-05T02:46:03.497Z,19.7
2018-11-05T02:46:52.665Z,19.6
2018-11-05T02:47:43.352Z,19.7
2018-11-05T02:48:32.315Z,19.7
2018-11-05T02:49:23.147Z,19.7
2018-11-05T02:50:12.943Z,19.7
2018-11-05T02:51:02.340Z,19.6
2018-11-05T02:51:52.311Z,19.6
2018-11-05T02:52:42.523Z,19.7
2018-11-05T02:53:34.406Z,19.7
2018-11-05T02:54:23.220Z,19.8
2018-11-05T02:55:12.822Z,19.8
2018-11-05T02:56:02.802Z,19.7
2018-11-05T02:56:53.537Z,19.6
2018-11-05T02:57:44.025Z,19.6
2018-11-05T02:58:33.784Z,19.7
2018-11-05T02:59:23.662Z,19.7
2018-11-05T03:00:13.015Z,19.7
2018-11-05T03:01:04.897Z,19.7
2018-11-05T03:01:52.859Z,19.6
2018-11-05T03:02:43.381Z,19.6
2018-11-05T03:03:35.138Z,19.6
2018-11-05T03:04:22.849Z,19.6
2018-11-05T03:05:14.266Z,19.7
2018-11-05T03:06:04.277Z,19.6
2018-11-05T03:06:54.296Z,19.6
2018-11-05T03:07:44.199Z,19.7
2018-11-05T03:08:34.001Z,19.6
2018-11-05T03:09:25.139Z,19.7
2018-11-05T03:10:14.192Z,19.7
2018-11-05T03:11:04.291Z,19.6
2018-11-05T03:11:54.869Z,19.6
2018-11-05T03:12:44.159Z,19.6
2018-11-05T03:13:34.848Z,19.6
2018-11-05T03:14:25.008Z,19.6
2018-11-05T03:15:15.165Z,19.6
2018-11-05T03:16:03.913Z,19.6
2018-11-05T03:16:55.103Z,19.6
2018-11-05T03:17:45.460Z,19.6
2018-11-05T03:18:36.543Z,19.7
2018-11-05T03:19:24.895Z,19.6
2018-11-05T03:20:14.777Z,19.6
2018-11-05T03:21:05.848Z,19.6
2018-11-05T03:21:56.121Z,19.6
2018-11-05T03:22:45.607Z,19.6
2018-11-05T03:23:36.453Z,19.6
2018-11-05T03:24:26.407Z,19.6
2018-11-05T03:25:15.645Z,19.6
2018-11-05T03:26:06.713Z,19.6
2018-11-05T03:26:55.866Z,19.6
2018-11-05T03:27:46.723Z,19.6
2018-11-05T03:28:37.113Z,19.6
2018-11-05T03:29:26.352Z,19.7
2018-11-05T03:30:17.455Z,19.6
2018-11-05T03:31:06.740Z,19.6
2018-11-05T03:31:55.845Z,19.6
2018-11-05T03:32:47.025Z,19.6
2018-11-05T03:33:36.792Z,19.6
2018-11-05T03:34:25.070Z,19.6
2018-11-05T03:35:16.793Z,19.6
2018-11-05T03:36:08.976Z,19.6
2018-11-05T03:36:57.966Z,19.6
2018-11-05T03:37:47.220Z,19.6
2018-11-05T03:38:37.036Z,19.6
2018-11-05T03:39:26.588Z,19.6
2018-11-05T03:40:17.392Z,19.6
2018-11-05T03:41:06.518Z,19.6
2018-11-05T03:41:56.395Z,19.6
2018-11-05T03:42:46.671Z,19.7
2018-11-05T03:43:36.847Z,19.6
2018-11-05T03:44:26.759Z,19.6
2018-11-05T03:45:17.113Z,19.6
2018-11-05T03:46:08.054Z,19.6
2018-11-05T03:46:58.258Z,19.6
2018-11-05T03:47:46.442Z,19.6
2018-11-05T03:48:37.428Z,19.6
2018-11-05T03:49:27.604Z,19.6
2018-11-05T03:50:17.597Z,19.6
2018-11-05T03:51:06.840Z,19.6
2018-11-05T03:51:57.707Z,19.6
2018-11-05T03:52:47.442Z,19.6
2018-11-05T03:53:37.097Z,19.6
2018-11-05T03:54:27.779Z,19.6
2018-11-05T03:55:17.937Z,19.6
2018-11-05T03:56:10.834Z,19.6
2018-11-05T03:56:58.549Z,19.6
2018-11-05T03:57:48.707Z,19.6
2018-11-05T03:58:37.319Z,19.6
2018-11-05T03:59:28.479Z,19.6
2018-11-05T04:00:19.701Z,19.6
2018-11-05T04:01:08.437Z,19.6
2018-11-05T04:01:58.384Z,19.6
2018-11-05T04:02:48.555Z,19.6
2018-11-05T04:03:38.672Z,19.6
2018-11-05T04:04:29.924Z,19.6
2018-11-05T04:05:19.404Z,19.6
2018-11-05T04:06:10.035Z,19.6
2018-11-05T04:06:59.487Z,19.6
2018-11-05T04:07:48.046Z,19.6
2018-11-05T04:08:39.003Z,19.6
2018-11-05T04:09:27.593Z,19.6
2018-11-05T04:10:17.348Z,19.6
2018-11-05T04:11:09.828Z,19.6
2018-11-05T04:11:59.208Z,19.6
2018-11-05T04:12:50.240Z,19.6
2018-11-05T04:13:39.212Z,19.6
2018-11-05T04:14:28.523Z,19.6
2018-11-05T04:15:21.123Z,19.6
2018-11-05T04:16:11.908Z,19.6
2018-11-05T04:16:59.892Z,19.6
2018-11-05T04:17:49.583Z,19.6
2018-11-05T04:18:37.698Z,19.6
2018-11-05T04:19:28.917Z,19.6
2018-11-05T04:20:20.027Z,19.6
2018-11-05T04:21:09.437Z,19.6
2018-11-05T04:22:00.163Z,19.6
2018-11-05T04:22:51.034Z,19.6
2018-11-05T04:23:40.328Z,19.6
2018-11-05T04:24:29.950Z,19.6
2018-11-05T04:25:20.127Z,19.6
2018-11-05T04:26:09.852Z,19.6
2018-11-05T04:26:58.837Z,19.6
2018-11-05T04:27:52.400Z,19.6
2018-11-05T04:28:40.650Z,19.5
2018-11-05T04:29:30.776Z,19.6
2018-11-05T04:30:19.039Z,19.5
2018-11-05T04:31:10.454Z,19.5
2018-11-05T04:31:59.458Z,19.5
2018-11-05T04:32:50.511Z,19.5
2018-11-05T04:33:41.133Z,19.5
2018-11-05T04:34:30.594Z,19.5
2018-11-05T04:35:20.631Z,19.5
2018-11-05T04:36:09.191Z,19.5
2018-11-05T04:54:14.413Z,19.4
2018-11-05T04:55:03.706Z,19.4
2018-11-05T04:55:53.296Z,19.4
2018-11-05T04:56:43.421Z,19.4
2018-11-05T04:57:33.326Z,19.4
2018-11-05T04:58:24.001Z,19.4
2018-11-05T04:59:14.948Z,19.4
2018-11-05T05:00:04.111Z,19.4
2018-11-05T05:00:53.817Z,19.4
2018-11-05T05:01:43.597Z,19.4
2018-11-05T05:02:33.938Z,19.4
2018-11-05T05:03:24.938Z,19.4
2018-11-05T05:04:14.576Z,19.4
2018-11-05T05:05:04.168Z,19.4
2018-11-05T05:05:54.168Z,19.4
2018-11-05T05:06:43.855Z,19.4
2018-11-05T05:07:33.488Z,19.4
2018-11-05T05:08:24.180Z,19.4
2018-11-05T05:09:14.227Z,19.4
2018-11-05T05:10:05.144Z,19.4
2018-11-05T05:10:52.860Z,19.4
2018-11-05T05:11:44.735Z,19.4
2018-11-05T05:12:35.286Z,19.4
2018-11-05T05:13:25.837Z,19.4
2018-11-05T05:14:15.317Z,19.4
2018-11-05T05:15:05.662Z,19.4
2018-11-05T05:15:56.171Z,19.4
2018-11-05T05:16:46.574Z,19.4
2018-11-05T05:17:36.144Z,19.4
2018-11-05T05:18:26.174Z,19.4
2018-11-05T05:19:16.594Z,19.4
2018-11-05T05:20:05.973Z,19.4
2018-11-05T05:20:57.091Z,19.4
2018-11-05T05:21:46.075Z,19.4
2018-11-05T05:22:38.746Z,19.4
2018-11-05T05:23:25.559Z,19.4
2018-11-05T05:24:16.332Z,19.4
2018-11-05T05:25:06.941Z,19.4
2018-11-05T05:25:56.104Z,19.4
2018-11-05T05:26:47.031Z,19.4
2018-11-05T05:27:36.405Z,19.4
2018-11-05T05:28:25.807Z,19.4
2018-11-05T05:29:16.471Z,19.4
2018-11-05T05:30:05.824Z,19.4
2018-11-05T05:30:56.871Z,19.4
2018-11-05T05:31:46.086Z,19.4
2018-11-05T05:32:37.189Z,19.3
2018-11-05T05:33:25.980Z,19.3
2018-11-05T05:34:16.723Z,19.3
2018-11-05T05:35:06.899Z,19.3
2018-11-05T05:35:56.350Z,19.3
2018-11-05T05:36:47.063Z,19.4
2018-11-05T05:37:35.731Z,19.3
2018-11-05T05:38:27.117Z,19.3
2018-11-05T05:39:17.703Z,19.3
2018-11-05T05:40:07.041Z,19.3
2018-11-05T05:40:58.815Z,19.4
2018-11-05T05:41:47.025Z,19.3
2018-11-05T05:42:37.633Z,19.3
2018-11-05T05:43:27.652Z,19.3
2018-11-05T05:44:17.912Z,19.4
2018-11-05T05:45:07.580Z,19.3
2018-11-05T05:45:57.022Z,19.3
2018-11-05T05:46:46.761Z,19.3
2018-11-05T05:47:37.032Z,19.3
2018-11-05T05:48:28.262Z,19.3
2018-11-05T05:49:17.262Z,19.3
2018-11-05T05:50:09.903Z,19.3
2018-11-05T05:50:57.475Z,19.3
2018-11-05T05:51:47.521Z,19.3
2018-11-05T05:52:37.985Z,19.3
2018-11-05T05:53:27.937Z,19.3
2018-11-05T05:54:17.607Z,19.3
2018-11-05T05:55:07.976Z,19.3
2018-11-05T05:55:58.094Z,19.3
2018-11-05T05:56:46.982Z,19.3
2018-11-05T05:57:38.246Z,19.3
2018-11-05T05:58:27.974Z,19.3
2018-11-05T05:59:16.698Z,19.3
2018-11-05T06:00:11.347Z,19.3
2018-11-05T06:00:57.369Z,19.3
2018-11-05T06:01:47.974Z,19.3
2018-11-05T06:02:37.803Z,19.3
2018-11-05T06:03:27.883Z,19.3
2018-11-05T06:04:18.113Z,19.3
2018-11-05T06:05:08.748Z,19.3
2018-11-05T06:05:59.911Z,19.3
2018-11-05T06:06:49.773Z,19.3
2018-11-05T06:07:38.756Z,19.3
2018-11-05T06:08:27.646Z,19.3
2018-11-05T06:09:18.579Z,19.3
2018-11-05T06:10:08.850Z,19.3
2018-11-05T06:10:58.639Z,19.3
2018-11-05T06:11:48.008Z,19.3
2018-11-05T06:12:39.913Z,19.3
2018-11-05T06:13:28.906Z,19.3
2018-11-05T06:14:19.248Z,19.3
2018-11-05T06:15:09.268Z,19.2
2018-11-05T06:16:02.573Z,19.3
2018-11-05T06:16:48.303Z,19.3
2018-11-05T06:17:40.206Z,19.2
2018-11-05T06:18:29.275Z,19.3
2018-11-05T06:19:19.841Z,19.3
2018-11-05T06:20:08.965Z,19.3
2018-11-05T06:20:59.672Z,19.3
2018-11-05T06:21:53.204Z,19.3
2018-11-05T06:22:40.256Z,19.3
2018-11-05T06:23:29.969Z,19.2
2018-11-05T06:24:19.331Z,19.3
2018-11-05T06:25:09.736Z,19.3
2018-11-05T06:26:01.290Z,19.3
2018-11-05T06:26:48.878Z,19.2
2018-11-05T06:27:40.875Z,19.2
2018-11-05T06:28:32.908Z,19.2
2018-11-05T06:29:20.470Z,19.2
2018-11-05T06:30:11.328Z,19.3
2018-11-05T06:31:01.778Z,19.2
2018-11-05T06:31:51.080Z,19.2
2018-11-05T06:32:43.192Z,19.3
2018-11-05T06:33:31.608Z,19.2
2018-11-05T06:34:20.768Z,19.2
2018-11-05T06:35:11.236Z,19.2
2018-11-05T06:36:01.090Z,19.2
2018-11-05T06:36:51.640Z,19.2
2018-11-05T06:37:41.967Z,19.2
2018-11-05T06:38:30.577Z,19.2
2018-11-05T06:39:21.500Z,19.3
2018-11-05T06:40:10.501Z,19.2
2018-11-05T06:41:02.651Z,19.2
2018-11-05T06:41:53.189Z,19.2
2018-11-05T06:42:41.091Z,19.2
2018-11-05T06:43:32.767Z,19.2
2018-11-05T06:44:24.215Z,19.2
2018-11-05T06:45:12.012Z,19.2
2018-11-05T06:46:02.690Z,19.3
2018-11-05T06:46:51.822Z,19.2
2018-11-05T06:47:41.566Z,19.2
2018-11-05T06:48:32.601Z,19.2
2018-11-05T06:49:21.517Z,19.2
2018-11-05T06:50:11.443Z,19.2
2018-11-05T06:51:02.878Z,19.2
2018-11-05T06:51:51.897Z,19.1
2018-11-05T06:52:42.644Z,19.2
2018-11-05T06:53:32.174Z,19.2
2018-11-05T06:54:22.271Z,19.2
2018-11-05T06:55:11.933Z,19.2
2018-11-05T06:56:03.621Z,19.2
2018-11-05T06:56:51.856Z,19.1
2018-11-05T06:57:44.907Z,19.2
2018-11-05T06:58:33.050Z,19.2
2018-11-05T06:59:22.427Z,19.2
2018-11-05T07:00:12.538Z,19.2
2018-11-05T07:01:03.356Z,19.2
2018-11-05T07:01:52.969Z,19.1
2018-11-05T07:02:42.460Z,19.2
2018-11-05T07:03:32.149Z,19.2
2018-11-05T07:04:23.009Z,19.1
2018-11-05T07:05:11.781Z,19.1
2018-11-05T07:06:05.999Z,19.1
2018-11-05T07:06:52.664Z,19.1
2018-11-05T07:07:43.188Z,19.1
2018-11-05T07:08:32.464Z,19.2
2018-11-05T07:09:22.194Z,19.2
2018-11-05T07:10:13.281Z,19.2
2018-11-05T07:11:02.296Z,19.2
2018-11-05T07:11:52.958Z,19.2
2018-11-05T07:12:43.913Z,19.1
2018-11-05T07:13:33.873Z,19.2
2018-11-05T07:14:23.029Z,19.1
2018-11-05T07:15:13.621Z,19.1
2018-11-05T07:16:02.600Z,19.1
2018-11-05T07:16:53.891Z,19.1
2018-11-05T07:17:44.423Z,19.1
2018-11-05T07:18:36.899Z,19.1
2018-11-05T07:19:25.321Z,19.1
2018-11-05T07:20:13.349Z,19.1
2018-11-05T07:21:03.538Z,19.2
2018-11-05T07:21:51.772Z,19.1
2018-11-05T07:22:44.808Z,19.1
2018-11-05T07:23:34.640Z,19.1
2018-11-05T07:24:23.790Z,19.1
2018-11-05T07:25:13.501Z,19.1
2018-11-05T07:26:03.276Z,19.2
2018-11-05T07:26:53.878Z,19.1
2018-11-05T07:27:46.377Z,19.1
2018-11-05T07:28:34.465Z,19.1
2018-11-05T07:29:24.454Z,19.2
2018-11-05T07:30:14.742Z,19.1
2018-11-05T07:31:04.670Z,19.1
2018-11-05T07:31:54.318Z,19.1
2018-11-05T07:32:44.740Z,19.1
2018-11-05T07:33:38.973Z,19.1
2018-11-05T07:34:28.177Z,19.1
2018-11-05T07:35:13.950Z,19.1
2018-11-05T07:36:04.313Z,19.1
2018-11-05T07:36:55.133Z,19.2
2018-11-05T07:37:45.404Z,19.2
2018-11-05T07:38:35.631Z,19.1
2018-11-05T07:39:25.382Z,19.1
2018-11-05T07:40:15.270Z,19.1
2018-11-05T07:41:04.656Z,19.1
2018-11-05T07:41:54.747Z,19.1
2018-11-05T07:42:45.824Z,19.1
2018-11-05T07:43:36.275Z,19.1
2018-11-05T07:44:25.957Z,19.1
2018-11-05T07:45:15.997Z,19.1
2018-11-05T07:46:06.330Z,19.1
2018-11-05T07:46:55.192Z,19.1
2018-11-05T07:47:45.761Z,19.1
2018-11-05T07:48:35.944Z,19.1
2018-11-05T07:49:26.291Z,19.2
2018-11-05T07:50:18.847Z,19.1
2018-11-05T07:51:07.175Z,19.1
2018-11-05T07:51:55.602Z,19.1
2018-11-05T07:52:46.979Z,19.1
2018-11-05T07:53:35.599Z,19.1
2018-11-05T07:54:26.959Z,19.1
2018-11-05T07:55:15.929Z,19.1
2018-11-05T07:56:07.227Z,19.1
2018-11-05T07:57:00.162Z,19.1
2018-11-05T07:57:47.103Z,19.1
2018-11-05T07:58:37.467Z,19.1
2018-11-05T07:59:26.134Z,19.1
2018-11-05T08:00:18.506Z,19.1
2018-11-05T08:01:07.717Z,19.1
2018-11-05T08:01:56.846Z,19.1
2018-11-05T08:02:48.596Z,19.1
2018-11-05T08:03:36.089Z,19.1
2018-11-05T08:04:29.064Z,19.1
2018-11-05T08:05:17.900Z,19.1
2018-11-05T08:06:07.015Z,19.1
2018-11-05T08:06:57.656Z,19.1
2018-11-05T08:07:48.373Z,19.1
2018-11-05T08:08:40.175Z,19.1
2018-11-05T08:09:28.503Z,19.1
2018-11-05T08:10:18.068Z,19.1
2018-11-05T08:11:08.371Z,19.1
2018-11-05T08:11:57.776Z,19.1
2018-11-05T08:12:48.816Z,19.1
2018-11-05T08:13:36.695Z,19.1
2018-11-05T08:14:30.529Z,19.1
2018-11-05T08:15:17.885Z,19.1
2018-11-05T08:16:07.975Z,19.1
2018-11-05T08:16:57.875Z,19.1
2018-11-05T08:17:47.770Z,19.1
2018-11-05T08:18:37.808Z,19.1
2018-11-05T08:19:29.037Z,19.1
2018-11-05T08:20:18.189Z,19.1
2018-11-05T08:21:08.675Z,19.1
2018-11-05T08:21:59.165Z,19.1
2018-11-05T08:22:47.785Z,19.1
2018-11-05T08:23:39.546Z,19.1
2018-11-05T08:24:27.889Z,19.1
2018-11-05T08:25:19.136Z,19.1
2018-11-05T08:26:09.789Z,19.1
2018-11-05T08:27:00.102Z,19.1
2018-11-05T08:27:49.887Z,19.1
2018-11-05T08:28:39.052Z,19.1
2018-11-05T08:29:28.799Z,19.1
2018-11-05T08:30:18.280Z,19.1
2018-11-05T08:31:08.539Z,19.1
2018-11-05T08:32:00.208Z,19.2
2018-11-05T08:32:50.322Z,19.1
2018-11-05T08:33:39.016Z,19.1
2018-11-05T08:34:30.379Z,19.1
2018-11-05T08:35:19.144Z,19.1
2018-11-05T08:36:10.094Z,19.1
2018-11-05T08:37:00.519Z,19.1
2018-11-05T08:37:50.219Z,19.1
2018-11-05T08:38:39.821Z,19.1
2018-11-05T08:39:30.844Z,19.1
2018-11-05T08:40:22.621Z,19.1
2018-11-05T08:41:10.068Z,19.1
2018-11-05T08:42:00.172Z,19.1
2018-11-05T08:42:50.439Z,19.1
2018-11-05T08:43:39.801Z,19.1
2018-11-05T08:44:30.110Z,19.1
2018-11-05T08:45:20.981Z,19.1
2018-11-05T08:46:10.398Z,19.1
2018-11-05T08:47:03.549Z,19.1
2018-11-05T08:47:49.966Z,19.1
2018-11-05T08:48:40.245Z,19.1
2018-11-05T08:49:31.426Z,19.1
2018-11-05T08:50:24.462Z,19.1
2018-11-05T08:51:20.115Z,19.1
2018-11-05T08:52:00.769Z,19.1
2018-11-05T09:08:43.856Z,19.1
2018-11-05T09:09:34.287Z,19.1
2018-11-05T09:10:28.473Z,19.1
2018-11-05T09:11:17.814Z,19.1
2018-11-05T09:12:05.122Z,19.1
2018-11-05T09:12:54.956Z,19.1
2018-11-05T09:13:45.675Z,19.1
2018-11-05T09:14:34.509Z,19.1
2018-11-05T09:15:25.357Z,19.1
2018-11-05T09:16:17.130Z,19.1
2018-11-05T09:17:05.182Z,19.1
2018-11-05T09:17:54.824Z,19.1
2018-11-05T09:18:45.018Z,19.1
2018-11-05T09:19:34.134Z,19.1
2018-11-05T09:20:25.220Z,19.1
2018-11-05T09:21:14.899Z,19.1
2018-11-05T09:22:05.884Z,19.1
2018-11-05T09:22:55.132Z,19.2
2018-11-05T09:23:45.924Z,19.1
2018-11-05T09:24:35.328Z,19.2
2018-11-05T09:25:25.591Z,19.1
2018-11-05T09:26:14.299Z,19.1
2018-11-05T09:27:04.929Z,19.1
2018-11-05T09:27:57.674Z,19.1
2018-11-05T09:28:46.052Z,19.1
2018-11-05T09:29:35.869Z,19.1
2018-11-05T09:30:26.693Z,19.1
2018-11-05T09:31:16.101Z,19.1
2018-11-05T09:32:05.712Z,19.2
2018-11-05T09:32:55.344Z,19.2
2018-11-05T09:33:44.996Z,19.2
2018-11-05T09:34:36.233Z,19.1
2018-11-05T09:35:26.269Z,19.2
2018-11-05T09:36:16.361Z,19.1
2018-11-05T09:37:06.174Z,19.2
2018-11-05T09:37:55.724Z,19.1
2018-11-05T09:38:47.138Z,19.2
2018-11-05T09:39:35.211Z,19.2
2018-11-05T09:40:25.878Z,19.2
2018-11-05T09:41:15.795Z,19.2
2018-11-05T09:42:07.531Z,19.1
2018-11-05T09:43:00.199Z,19.2
2018-11-05T09:43:46.178Z,19.2
2018-11-05T09:44:36.576Z,19.2
2018-11-05T09:45:27.205Z,19.1
2018-11-05T09:46:16.788Z,19.1
2018-11-05T09:47:06.506Z,19.2
2018-11-05T09:47:57.702Z,19.1
2018-11-05T09:48:46.802Z,19.1
2018-11-05T09:49:39.061Z,19.2
2018-11-05T09:50:28.734Z,19.1
2018-11-05T09:51:18.242Z,19.2
2018-11-05T09:52:07.362Z,19.2
2018-11-05T09:52:57.672Z,19.1
2018-11-05T09:53:47.763Z,19.1
2018-11-05T09:54:38.158Z,19.2
2018-11-05T09:55:28.594Z,19.1
2018-11-05T09:56:18.854Z,19.2
2018-11-05T09:57:08.809Z,19.2
2018-11-05T09:57:57.537Z,19.1
2018-11-05T09:58:49.070Z,19.2
2018-11-05T09:59:38.467Z,19.2
2018-11-05T10:00:28.577Z,19.2
2018-11-05T10:01:18.367Z,19.2
2018-11-05T10:02:08.371Z,19.1
2018-11-05T10:03:03.133Z,19.2
2018-11-05T10:03:53.597Z,19.1
2018-11-05T10:04:44.842Z,19.2
2018-11-05T10:05:29.553Z,19.2
2018-11-05T10:06:17.419Z,19.2
2018-11-05T10:07:09.162Z,19.2
2018-11-05T10:07:59.977Z,19.2
2018-11-05T10:08:49.009Z,19.2
2018-11-05T10:09:40.664Z,19.2
2018-11-05T10:10:33.420Z,19.2
2018-11-05T10:11:19.439Z,19.2
2018-11-05T10:12:10.238Z,19.2
2018-11-05T10:12:59.719Z,19.2
2018-11-05T10:13:50.629Z,19.2
2018-11-05T10:14:38.669Z,19.2
2018-11-05T10:15:30.796Z,19.2
2018-11-05T10:16:19.362Z,19.2
2018-11-05T10:17:10.294Z,19.2
2018-11-05T10:18:00.568Z,19.2
2018-11-05T10:18:49.474Z,19.2
2018-11-05T10:19:39.901Z,19.2
2018-11-05T10:20:28.634Z,19.2
2018-11-05T10:21:19.472Z,19.2
2018-11-05T10:22:08.406Z,19.2
2018-11-05T10:22:58.767Z,19.2
2018-11-05T10:23:50.405Z,19.1
2018-11-05T10:24:40.749Z,19.2
2018-11-05T10:25:29.123Z,19.3
2018-11-05T10:26:20.743Z,19.2
2018-11-05T10:27:09.870Z,19.2
2018-11-05T10:27:59.795Z,19.2
2018-11-05T10:28:48.404Z,19.2
2018-11-05T10:29:40.410Z,19.2
2018-11-05T10:30:30.886Z,19.2
2018-11-05T10:31:19.825Z,19.2
2018-11-05T10:32:10.199Z,19.2
2018-11-05T10:33:01.767Z,19.2
2018-11-05T10:33:51.381Z,19.2
2018-11-05T10:34:41.265Z,19.2
2018-11-05T10:35:28.767Z,19.2
2018-11-05T10:36:19.910Z,19.2
2018-11-05T10:37:10.940Z,19.2
2018-11-05T10:37:59.805Z,19.2
2018-11-05T10:38:50.659Z,19.2
2018-11-05T10:39:40.518Z,19.3
2018-11-05T10:40:33.840Z,19.2
2018-11-05T10:41:21.318Z,19.2
2018-11-05T10:42:11.354Z,19.2
2018-11-05T10:43:00.936Z,19.2
2018-11-05T10:43:53.127Z,19.3
2018-11-05T10:44:41.754Z,19.2
2018-11-05T10:45:31.935Z,19.2
2018-11-05T10:46:24.841Z,19.3
2018-11-05T10:47:10.850Z,19.3
2018-11-05T10:48:01.717Z,19.2
2018-11-05T10:48:51.356Z,19.2
2018-11-05T10:49:42.481Z,19.3
2018-11-05T10:50:34.340Z,19.2
2018-11-05T10:51:25.120Z,19.2
2018-11-05T10:52:19.785Z,19.2
2018-11-05T10:53:02.761Z,19.2
2018-11-05T10:53:52.941Z,19.2
2018-11-05T10:54:43.133Z,19.3
2018-11-05T10:55:33.189Z,19.2
2018-11-05T10:56:21.779Z,19.2
2018-11-05T10:57:13.894Z,19.3
2018-11-05T10:58:04.220Z,19.3
2018-11-05T10:58:52.920Z,19.3
2018-11-05T10:59:43.684Z,19.2
2018-11-05T11:00:31.991Z,19.2
2018-11-05T11:01:22.800Z,19.3
2018-11-05T11:02:13.296Z,19.2
2018-11-05T11:03:03.715Z,19.2
2018-11-05T11:03:54.449Z,19.2
2018-11-05T11:04:42.615Z,19.3
2018-11-05T11:05:32.566Z,19.2
2018-11-05T11:06:23.685Z,19.2
2018-11-05T11:07:13.685Z,19.3
2018-11-05T11:08:02.028Z,19.3
2018-11-05T11:08:53.854Z,19.3
2018-11-05T11:09:44.608Z,19.3
2018-11-05T11:10:33.423Z,19.3
2018-11-05T11:11:22.503Z,19.2
2018-11-05T11:12:14.021Z,19.3
2018-11-05T11:13:03.387Z,19.2
2018-11-05T11:13:53.556Z,19.3
2018-11-05T11:14:44.450Z,19.2
2018-11-05T11:15:34.728Z,19.3
2018-11-05T11:16:23.775Z,19.2
2018-11-05T11:17:14.245Z,19.3
2018-11-05T11:18:03.605Z,19.3
2018-11-05T11:18:53.774Z,19.3
2018-11-05T11:19:42.870Z,19.3
2018-11-05T11:20:34.199Z,19.3
2018-11-05T11:21:25.287Z,19.3
2018-11-05T11:22:15.748Z,19.3
2018-11-05T11:23:03.275Z,19.3
2018-11-05T11:23:54.841Z,19.3
2018-11-05T11:24:44.298Z,19.3
2018-11-05T11:25:34.196Z,19.3
2018-11-05T11:26:23.862Z,19.3
2018-11-05T11:27:13.413Z,19.3
2018-11-05T11:28:10.279Z,19.3
2018-11-05T11:28:56.491Z,19.3
2018-11-05T11:29:45.387Z,19.3
2018-11-05T11:30:36.201Z,19.3
2018-11-05T11:31:25.145Z,19.3
2018-11-05T11:32:14.459Z,19.3
2018-11-05T11:33:03.898Z,19.3
2018-11-05T11:33:54.745Z,19.3
2018-11-05T11:34:44.701Z,19.3
2018-11-05T11:35:34.849Z,19.3
2018-11-05T11:36:26.590Z,19.3
2018-11-05T11:37:16.631Z,19.3
2018-11-05T11:38:04.381Z,19.3
2018-11-05T11:38:56.196Z,19.3
2018-11-05T11:39:45.822Z,19.3
2018-11-05T11:40:36.468Z,19.3
2018-11-05T11:41:26.503Z,19.3
2018-11-05T11:42:15.730Z,19.3
2018-11-05T11:43:05.643Z,19.3
2018-11-05T11:43:56.362Z,19.3
2018-11-05T11:44:47.102Z,19.3
2018-11-05T11:45:35.362Z,19.3
2018-11-05T11:46:26.264Z,19.3
2018-11-05T11:47:15.811Z,19.3
2018-11-05T11:48:06.051Z,19.3
2018-11-05T11:48:57.258Z,19.3
2018-11-05T11:49:45.990Z,19.3
2018-11-05T11:50:37.143Z,19.3
2018-11-05T11:51:27.241Z,19.3
2018-11-05T11:52:16.638Z,19.3
2018-11-05T11:53:08.411Z,19.3
2018-11-05T11:53:57.227Z,19.3
2018-11-05T11:54:46.983Z,19.3
2018-11-05T11:55:37.437Z,19.3
2018-11-05T11:56:26.847Z,19.3